sensor_id;sensor_type;location;lat;lon;timestamp;pressure;altitude;pressure_sealevel;temperature;humidity
48778;BME280;34578;0.000;0.000;2023-05-09T00:03:47;96920.69;;;18.15;58.05
48778;BME280;34578;0.000;0.000;2023-05-09T00:08:47;96923.22;;;18.15;58.07
48778;BME280;34578;0.000;0.000;2023-05-09T00:13:48;96924.91;;;18.14;57.92
48778;BME280;34578;0.000;0.000;2023-05-09T00:18:49;96926.63;;;18.17;60.39
48778;BME280;34578;0.000;0.000;2023-05-09T00:23:50;96911.50;;;18.38;61.30
48778;BME280;34578;0.000;0.000;2023-05-09T00:28:50;96907.34;;;18.49;61.73
48778;BME280;34578;0.000;0.000;2023-05-09T00:33:52;96900.53;;;18.37;60.54
48778;BME280;34578;0.000;0.000;2023-05-09T00:38:53;96886.94;;;18.26;58.86
48778;BME280;34578;0.000;0.000;2023-05-09T00:43:53;96876.78;;;18.22;58.43
48778;BME280;34578;0.000;0.000;2023-05-09T00:48:54;96875.09;;;18.19;58.42
48778;BME280;34578;0.000;0.000;2023-05-09T00:53:55;96868.31;;;18.15;57.99
48778;BME280;34578;0.000;0.000;2023-05-09T00:58:55;96864.09;;;18.16;58.19
48778;BME280;34578;0.000;0.000;2023-05-09T01:03:56;96858.19;;;18.15;58.10
48778;BME280;34578;0.000;0.000;2023-05-09T01:19:56;96848.88;;;18.13;57.91
48778;BME280;34578;0.000;0.000;2023-05-09T01:25:05;96854.06;;;18.34;61.27
48778;BME280;34578;0.000;0.000;2023-05-09T01:30:07;96839.72;;;18.46;62.49
48778;BME280;34578;0.000;0.000;2023-05-09T01:35:12;96846.47;;;18.44;60.82
48778;BME280;34578;0.000;0.000;2023-05-09T01:40:15;96843.91;;;18.32;60.35
48778;BME280;34578;0.000;0.000;2023-05-09T01:45:17;96845.53;;;18.24;58.96
48778;BME280;34578;0.000;0.000;2023-05-09T01:50:20;96840.47;;;18.20;58.41
48778;BME280;34578;0.000;0.000;2023-05-09T01:55:25;96835.38;;;18.17;58.61
48778;BME280;34578;0.000;0.000;2023-05-09T02:00:27;96831.16;;;18.16;58.28
48778;BME280;34578;0.000;0.000;2023-05-09T02:05:29;96824.41;;;18.15;58.23
48778;BME280;34578;0.000;0.000;2023-05-09T02:10:30;96820.16;;;18.14;57.99
48778;BME280;34578;0.000;0.000;2023-05-09T02:15:31;96808.34;;;18.13;57.96
48778;BME280;34578;0.000;0.000;2023-05-09T02:20:32;96808.34;;;18.13;58.23
48778;BME280;34578;0.000;0.000;2023-05-09T02:25:35;96813.44;;;18.19;62.68
48778;BME280;34578;0.000;0.000;2023-05-09T02:30:39;96793.22;;;18.38;62.17
48778;BME280;34578;0.000;0.000;2023-05-09T02:35:43;96807.59;;;18.48;60.32
48778;BME280;34578;0.000;0.000;2023-05-09T02:40:46;96809.25;;;18.34;60.81
48778;BME280;34578;0.000;0.000;2023-05-09T02:45:46;96804.16;;;18.27;60.34
48778;BME280;34578;0.000;0.000;2023-05-09T02:50:46;96794.84;;;18.23;58.94
48778;BME280;34578;0.000;0.000;2023-05-09T02:55:47;96789.78;;;18.20;58.54
48778;BME280;34578;0.000;0.000;2023-05-09T03:00:47;96791.47;;;18.19;58.16
48778;BME280;34578;0.000;0.000;2023-05-09T03:05:48;96783.88;;;18.15;58.17
48778;BME280;34578;0.000;0.000;2023-05-09T03:10:48;96799.06;;;18.16;57.99
48778;BME280;34578;0.000;0.000;2023-05-09T03:15:50;96796.53;;;18.15;58.06
48778;BME280;34578;0.000;0.000;2023-05-09T03:20:51;96784.69;;;18.14;57.92
48778;BME280;34578;0.000;0.000;2023-05-09T03:25:52;96787.25;;;18.12;57.84
48778;BME280;34578;0.000;0.000;2023-05-09T03:30:53;96782.22;;;18.30;60.99
48778;BME280;34578;0.000;0.000;2023-05-09T03:35:57;96781.41;;;18.46;62.31
48778;BME280;34578;0.000;0.000;2023-05-09T03:40:58;96778.84;;;18.39;60.53
48778;BME280;34578;0.000;0.000;2023-05-09T03:45:59;96782.22;;;18.27;60.54
48778;BME280;34578;0.000;0.000;2023-05-09T03:51:00;96774.56;;;18.24;59.64
48778;BME280;34578;0.000;0.000;2023-05-09T03:56:04;96785.56;;;18.20;58.78
48778;BME280;34578;0.000;0.000;2023-05-09T04:01:10;96779.63;;;18.18;58.33
48778;BME280;34578;0.000;0.000;2023-05-09T04:06:11;96776.25;;;18.16;58.23
48778;BME280;34578;0.000;0.000;2023-05-09T04:11:16;96777.94;;;18.13;58.35
48778;BME280;34578;0.000;0.000;2023-05-09T04:16:19;96780.47;;;18.17;58.62
48778;BME280;34578;0.000;0.000;2023-05-09T04:21:19;96776.28;;;18.15;58.24
48778;BME280;34578;0.000;0.000;2023-05-09T04:26:23;96772.88;;;18.16;58.21
48778;BME280;34578;0.000;0.000;2023-05-09T04:31:26;96776.28;;;18.27;62.51
48778;BME280;34578;0.000;0.000;2023-05-09T04:36:27;96771.28;;;18.42;65.02
48778;BME280;34578;0.000;0.000;2023-05-09T04:41:30;96772.94;;;18.34;63.83
48778;BME280;34578;0.000;0.000;2023-05-09T04:46:31;96769.50;;;18.23;63.07
48778;BME280;34578;0.000;0.000;2023-05-09T04:51:31;96774.56;;;18.20;62.18
48778;BME280;34578;0.000;0.000;2023-05-09T04:56:32;96772.88;;;18.19;60.78
48778;BME280;34578;0.000;0.000;2023-05-09T05:01:34;96759.38;;;18.17;59.72
48778;BME280;34578;0.000;0.000;2023-05-09T05:06:35;96750.06;;;18.14;59.77
48778;BME280;34578;0.000;0.000;2023-05-09T05:11:35;96761.91;;;18.15;58.93
48778;BME280;34578;0.000;0.000;2023-05-09T05:16:37;96758.53;;;18.10;58.30
48778;BME280;34578;0.000;0.000;2023-05-09T05:21:38;96754.28;;;18.08;58.28
48778;BME280;34578;0.000;0.000;2023-05-09T05:26:39;96760.19;;;18.10;57.90
48778;BME280;34578;0.000;0.000;2023-05-09T05:31:40;96761.84;;;17.97;63.02
48778;BME280;34578;0.000;0.000;2023-05-09T05:36:41;96748.38;;;18.21;62.04
48778;BME280;34578;0.000;0.000;2023-05-09T05:41:42;96735.78;;;18.36;65.19
48778;BME280;34578;0.000;0.000;2023-05-09T05:46:43;96738.31;;;18.33;61.02
48778;BME280;34578;0.000;0.000;2023-05-09T05:51:44;96736.56;;;18.23;60.73
48778;BME280;34578;0.000;0.000;2023-05-09T05:56:45;96740.78;;;18.18;59.70
48778;BME280;34578;0.000;0.000;2023-05-09T06:01:45;96731.50;;;18.12;59.00
48778;BME280;34578;0.000;0.000;2023-05-09T06:06:47;96728.13;;;18.13;58.68
48778;BME280;34578;0.000;0.000;2023-05-09T06:11:47;96717.13;;;18.10;58.35
48778;BME280;34578;0.000;0.000;2023-05-09T06:16:48;96716.28;;;18.12;58.12
48778;BME280;34578;0.000;0.000;2023-05-09T06:21:48;96713.75;;;18.09;58.04
48778;BME280;34578;0.000;0.000;2023-05-09T06:26:49;96706.97;;;18.04;57.87
48778;BME280;34578;0.000;0.000;2023-05-09T06:31:50;96697.69;;;18.07;57.72
48778;BME280;34578;0.000;0.000;2023-05-09T06:36:50;96695.19;;;18.15;61.07
48778;BME280;34578;0.000;0.000;2023-05-09T06:41:50;96691.84;;;18.34;61.78
48778;BME280;34578;0.000;0.000;2023-05-09T06:46:58;96681.69;;;18.38;59.44
48778;BME280;34578;0.000;0.000;2023-05-09T06:51:58;96669.84;;;18.27;60.02
48778;BME280;34578;0.000;0.000;2023-05-09T06:56:58;96666.47;;;18.19;59.55
48778;BME280;34578;0.000;0.000;2023-05-09T07:01:59;96659.72;;;18.15;58.84
48778;BME280;34578;0.000;0.000;2023-05-09T07:07:02;96656.31;;;18.13;58.35
48778;BME280;34578;0.000;0.000;2023-05-09T07:12:02;96652.94;;;18.12;57.87
48778;BME280;34578;0.000;0.000;2023-05-09T07:17:03;96648.72;;;18.10;57.96
48778;BME280;34578;0.000;0.000;2023-05-09T07:22:03;96641.97;;;18.09;57.66
48778;BME280;34578;0.000;0.000;2023-05-09T07:27:04;96631.00;;;18.07;57.57
48778;BME280;34578;0.000;0.000;2023-05-09T07:32:05;96625.94;;;18.07;57.45
48778;BME280;34578;0.000;0.000;2023-05-09T07:37:05;96614.94;;;18.06;57.43
48778;BME280;34578;0.000;0.000;2023-05-09T07:42:05;96604.81;;;18.27;59.34
48778;BME280;34578;0.000;0.000;2023-05-09T07:47:09;96605.66;;;18.40;62.78
48778;BME280;34578;0.000;0.000;2023-05-09T07:52:10;96603.97;;;18.36;59.61
48778;BME280;34578;0.000;0.000;2023-05-09T07:57:11;96601.44;;;18.24;59.84
48778;BME280;34578;0.000;0.000;2023-05-09T08:02:11;96582.84;;;18.19;59.05
48778;BME280;34578;0.000;0.000;2023-05-09T08:07:11;96571.84;;;18.14;58.68
48778;BME280;34578;0.000;0.000;2023-05-09T08:12:12;96570.16;;;18.13;58.04
48778;BME280;34578;0.000;0.000;2023-05-09T08:17:12;96559.19;;;18.11;57.80
48778;BME280;34578;0.000;0.000;2023-05-09T08:22:16;96564.28;;;18.11;57.63
48778;BME280;34578;0.000;0.000;2023-05-09T08:27:17;96557.53;;;18.10;57.49
48778;BME280;34578;0.000;0.000;2023-05-09T08:32:18;96553.31;;;18.09;57.53
48778;BME280;34578;0.000;0.000;2023-05-09T08:37:19;96541.47;;;18.09;57.57
48778;BME280;34578;0.000;0.000;2023-05-09T08:42:21;96529.66;;;18.16;61.19
48778;BME280;34578;0.000;0.000;2023-05-09T08:47:23;96527.09;;;18.34;59.21
48778;BME280;34578;0.000;0.000;2023-05-09T08:52:24;96521.19;;;18.41;59.07
48778;BME280;34578;0.000;0.000;2023-05-09T08:57:25;96517.81;;;18.30;59.43
48778;BME280;34578;0.000;0.000;2023-05-09T09:02:26;96514.41;;;18.22;59.41
48778;BME280;34578;0.000;0.000;2023-05-09T09:07:27;96508.50;;;18.18;58.99
48778;BME280;34578;0.000;0.000;2023-05-09T09:12:30;96503.47;;;18.17;58.69
48778;BME280;34578;0.000;0.000;2023-05-09T09:17:32;96504.31;;;18.16;58.24
48778;BME280;34578;0.000;0.000;2023-05-09T09:22:32;96489.97;;;18.13;58.15
48778;BME280;34578;0.000;0.000;2023-05-09T09:27:33;96485.72;;;18.14;57.79
48778;BME280;34578;0.000;0.000;2023-05-09T09:32:35;96468.00;;;18.11;57.57
48778;BME280;34578;0.000;0.000;2023-05-09T09:37:37;96464.63;;;18.10;57.47
48778;BME280;34578;0.000;0.000;2023-05-09T09:42:40;96464.63;;;18.10;57.62
48778;BME280;34578;0.000;0.000;2023-05-09T09:47:44;96464.56;;;18.27;59.49
48778;BME280;34578;0.000;0.000;2023-05-09T09:52:50;96449.34;;;18.40;63.45
48778;BME280;34578;0.000;0.000;2023-05-09T09:57:50;96450.19;;;18.38;59.13
48778;BME280;34578;0.000;0.000;2023-05-09T10:02:53;96440.09;;;18.24;59.64
48778;BME280;34578;0.000;0.000;2023-05-09T10:08:01;96438.44;;;18.20;59.26
48778;BME280;34578;0.000;0.000;2023-05-09T10:13:04;96427.44;;;18.18;58.95
48778;BME280;34578;0.000;0.000;2023-05-09T10:18:06;96421.56;;;18.15;58.41
48778;BME280;34578;0.000;0.000;2023-05-09T10:23:07;96417.31;;;18.14;58.09
48778;BME280;34578;0.000;0.000;2023-05-09T10:28:12;96408.88;;;18.13;57.82
48778;BME280;34578;0.000;0.000;2023-05-09T10:33:15;96394.53;;;18.11;57.74
48778;BME280;34578;0.000;0.000;2023-05-09T10:38:21;96393.72;;;18.10;58.03
48778;BME280;34578;0.000;0.000;2023-05-09T10:43:22;96391.19;;;18.10;57.58
48778;BME280;34578;0.000;0.000;2023-05-09T10:48:24;96381.84;;;18.15;62.11
48778;BME280;34578;0.000;0.000;2023-05-09T10:58:39;96370.75;;;18.43;58.74
48778;BME280;34578;0.000;0.000;2023-05-09T11:03:58;96356.47;;;18.32;59.57
48778;BME280;34578;0.000;0.000;2023-05-09T11:14:41;96341.28;;;18.20;59.80
48778;BME280;34578;0.000;0.000;2023-05-09T11:24:47;96326.97;;;18.16;58.52
48778;BME280;34578;0.000;0.000;2023-05-09T11:29:53;96310.91;;;18.14;58.08
48778;BME280;34578;0.000;0.000;2023-05-09T11:35:13;96302.47;;;18.15;58.51
48778;BME280;34578;0.000;0.000;2023-05-09T11:40:16;96296.59;;;18.10;58.07
48778;BME280;34578;0.000;0.000;2023-05-09T11:45:17;96280.53;;;18.09;58.00
48778;BME280;34578;0.000;0.000;2023-05-09T11:50:19;96276.28;;;18.13;59.15
48778;BME280;34578;0.000;0.000;2023-05-09T11:55:20;96269.47;;;18.33;59.71
48778;BME280;34578;0.000;0.000;2023-05-09T12:00:22;96268.53;;;18.44;59.18
48778;BME280;34578;0.000;0.000;2023-05-09T12:05:23;96257.63;;;18.35;59.59
48778;BME280;34578;0.000;0.000;2023-05-09T12:10:24;96262.72;;;18.26;60.09
48778;BME280;34578;0.000;0.000;2023-05-09T12:15:24;96257.66;;;18.20;59.52
48778;BME280;34578;0.000;0.000;2023-05-09T12:20:24;96241.66;;;18.18;59.22
48778;BME280;34578;0.000;0.000;2023-05-09T12:25:25;96244.19;;;18.16;59.69
48778;BME280;34578;0.000;0.000;2023-05-09T12:30:26;96227.31;;;18.14;59.65
48778;BME280;34578;0.000;0.000;2023-05-09T12:35:26;96219.69;;;18.15;58.87
48778;BME280;34578;0.000;0.000;2023-05-09T12:40:27;96212.97;;;18.16;59.25
48778;BME280;34578;0.000;0.000;2023-05-09T12:45:27;96210.41;;;18.13;58.24
48778;BME280;34578;0.000;0.000;2023-05-09T12:50:31;96200.28;;;18.13;58.23
48778;BME280;34578;0.000;0.000;2023-05-09T12:55:38;96203.56;;;18.30;60.03
48778;BME280;34578;0.000;0.000;2023-05-09T13:00:43;96197.56;;;18.43;60.71
48778;BME280;34578;0.000;0.000;2023-05-09T13:05:53;96188.34;;;18.36;59.79
48778;BME280;34578;0.000;0.000;2023-05-09T13:10:53;96188.38;;;18.27;59.90
48778;BME280;34578;0.000;0.000;2023-05-09T13:15:54;96177.47;;;18.20;59.11
48778;BME280;34578;0.000;0.000;2023-05-09T13:20:54;96167.34;;;18.16;59.21
48778;BME280;34578;0.000;0.000;2023-05-09T13:25:55;96158.09;;;18.15;58.67
48778;BME280;34578;0.000;0.000;2023-05-09T13:30:55;96161.44;;;18.14;58.27
48778;BME280;34578;0.000;0.000;2023-05-09T13:35:55;96143.72;;;18.12;57.83
48778;BME280;34578;0.000;0.000;2023-05-09T13:40:56;96140.34;;;18.12;58.15
48778;BME280;34578;0.000;0.000;2023-05-09T13:45:56;96137.81;;;18.12;57.82
48778;BME280;34578;0.000;0.000;2023-05-09T13:50:57;96131.03;;;18.14;58.49
48778;BME280;34578;0.000;0.000;2023-05-09T13:55:58;96131.81;;;18.23;60.90
48778;BME280;34578;0.000;0.000;2023-05-09T14:01:01;96129.19;;;18.40;60.44
48778;BME280;34578;0.000;0.000;2023-05-09T14:06:02;96124.13;;;18.38;59.90
48778;BME280;34578;0.000;0.000;2023-05-09T14:11:03;96116.59;;;18.29;59.91
48778;BME280;34578;0.000;0.000;2023-05-09T14:16:05;96120.00;;;18.22;59.36
48778;BME280;34578;0.000;0.000;2023-05-09T14:21:05;96114.13;;;18.19;58.77
48778;BME280;34578;0.000;0.000;2023-05-09T14:26:06;96116.69;;;18.16;58.37
48778;BME280;34578;0.000;0.000;2023-05-09T14:31:07;96112.47;;;18.15;58.08
48778;BME280;34578;0.000;0.000;2023-05-09T14:36:08;96101.50;;;18.13;58.25
48778;BME280;34578;0.000;0.000;2023-05-09T14:41:08;96096.47;;;18.10;58.99
48778;BME280;34578;0.000;0.000;2023-05-09T14:46:09;96099.00;;;18.10;58.04
48778;BME280;34578;0.000;0.000;2023-05-09T14:51:09;96113.34;;;18.09;57.76
48778;BME280;34578;0.000;0.000;2023-05-09T14:56:13;96131.88;;;18.13;59.47
48778;BME280;34578;0.000;0.000;2023-05-09T15:01:13;96121.63;;;18.32;59.32
48778;BME280;34578;0.000;0.000;2023-05-09T15:06:14;96117.28;;;18.45;58.63
48778;BME280;34578;0.000;0.000;2023-05-09T15:11:15;96100.50;;;18.35;58.96
48778;BME280;34578;0.000;0.000;2023-05-09T15:16:16;96105.63;;;18.23;59.18
48778;BME280;34578;0.000;0.000;2023-05-09T15:21:16;96108.19;;;18.18;58.99
48778;BME280;34578;0.000;0.000;2023-05-09T15:26:16;96104.03;;;18.14;58.44
48778;BME280;34578;0.000;0.000;2023-05-09T15:31:17;96104.91;;;18.10;57.97
48778;BME280;34578;0.000;0.000;2023-05-09T15:36:20;96110.84;;;18.08;57.77
48778;BME280;34578;0.000;0.000;2023-05-09T15:41:21;96114.22;;;18.07;57.51
48778;BME280;34578;0.000;0.000;2023-05-09T15:46:21;96119.31;;;18.07;57.36
48778;BME280;34578;0.000;0.000;2023-05-09T15:51:22;96126.03;;;18.05;57.44
48778;BME280;34578;0.000;0.000;2023-05-09T15:56:22;96130.25;;;18.07;57.30
48778;BME280;34578;0.000;0.000;2023-05-09T16:01:22;96125.94;;;18.21;60.91
48778;BME280;34578;0.000;0.000;2023-05-09T16:06:23;96131.72;;;18.37;59.98
48778;BME280;34578;0.000;0.000;2023-05-09T16:11:23;96128.34;;;18.38;58.67
48778;BME280;34578;0.000;0.000;2023-05-09T16:16:24;96132.63;;;18.27;59.45
48778;BME280;34578;0.000;0.000;2023-05-09T16:21:24;96126.78;;;18.19;59.08
48778;BME280;34578;0.000;0.000;2023-05-09T16:26:28;96134.44;;;18.13;58.31
48778;BME280;34578;0.000;0.000;2023-05-09T16:31:28;96127.72;;;18.06;60.34
48778;BME280;34578;0.000;0.000;2023-05-09T16:36:30;96125.16;;;18.12;58.97
48778;BME280;34578;0.000;0.000;2023-05-09T16:41:31;96131.03;;;18.14;58.89
48778;BME280;34578;0.000;0.000;2023-05-09T16:46:34;96122.63;;;18.15;58.41
48778;BME280;34578;0.000;0.000;2023-05-09T16:51:35;96119.25;;;18.08;58.41
48778;BME280;34578;0.000;0.000;2023-05-09T16:56:35;96117.59;;;18.10;58.33
48778;BME280;34578;0.000;0.000;2023-05-09T17:01:36;96110.81;;;18.11;57.97
48778;BME280;34578;0.000;0.000;2023-05-09T17:06:36;96111.50;;;18.34;59.52
48778;BME280;34578;0.000;0.000;2023-05-09T17:11:37;96095.28;;;18.47;59.87
48778;BME280;34578;0.000;0.000;2023-05-09T17:16:37;96096.25;;;18.35;58.77
48778;BME280;34578;0.000;0.000;2023-05-09T17:21:37;96096.34;;;18.23;57.57
48778;BME280;34578;0.000;0.000;2023-05-09T17:26:40;96100.59;;;18.20;57.93
48778;BME280;34578;0.000;0.000;2023-05-09T17:31:40;96098.97;;;18.16;57.65
48778;BME280;34578;0.000;0.000;2023-05-09T17:36:41;96097.25;;;18.16;57.43
48778;BME280;34578;0.000;0.000;2023-05-09T17:41:41;96083.75;;;18.13;57.35
48778;BME280;34578;0.000;0.000;2023-05-09T17:46:43;96079.56;;;18.13;57.45
48778;BME280;34578;0.000;0.000;2023-05-09T17:51:43;96081.22;;;18.14;57.58
48778;BME280;34578;0.000;0.000;2023-05-09T17:56:44;96106.56;;;18.16;57.57
48778;BME280;34578;0.000;0.000;2023-05-09T18:01:45;96109.91;;;18.18;57.24
48778;BME280;34578;0.000;0.000;2023-05-09T18:06:47;96102.22;;;18.28;60.37
48778;BME280;34578;0.000;0.000;2023-05-09T18:11:48;96100.41;;;18.44;63.27
48778;BME280;34578;0.000;0.000;2023-05-09T18:16:48;96100.34;;;18.48;60.52
48778;BME280;34578;0.000;0.000;2023-05-09T18:21:49;96101.34;;;18.34;58.08
48778;BME280;34578;0.000;0.000;2023-05-09T18:26:49;96103.91;;;18.28;57.81
48778;BME280;34578;0.000;0.000;2023-05-09T18:31:50;96102.25;;;18.24;57.96
48778;BME280;34578;0.000;0.000;2023-05-09T18:36:50;96107.34;;;18.21;57.79
48778;BME280;34578;0.000;0.000;2023-05-09T18:41:51;96096.41;;;18.16;57.82
48778;BME280;34578;0.000;0.000;2023-05-09T18:46:52;96104.03;;;18.16;57.70
48778;BME280;34578;0.000;0.000;2023-05-09T18:51:53;96099.81;;;18.15;57.73
48778;BME280;34578;0.000;0.000;2023-05-09T18:56:55;96093.88;;;18.16;58.25
48778;BME280;34578;0.000;0.000;2023-05-09T19:01:55;96096.41;;;18.16;58.35
48778;BME280;34578;0.000;0.000;2023-05-09T19:06:56;96087.19;;;18.10;58.42
48778;BME280;34578;0.000;0.000;2023-05-09T19:11:58;96091.22;;;18.34;60.19
48778;BME280;34578;0.000;0.000;2023-05-09T19:17:02;96096.16;;;18.49;59.55
48778;BME280;34578;0.000;0.000;2023-05-09T19:22:03;96104.59;;;18.46;58.94
48778;BME280;34578;0.000;0.000;2023-05-09T19:27:04;96107.28;;;18.33;58.39
48778;BME280;34578;0.000;0.000;2023-05-09T19:32:05;96103.94;;;18.25;57.83
48778;BME280;34578;0.000;0.000;2023-05-09T19:37:06;96095.53;;;18.20;57.96
48778;BME280;34578;0.000;0.000;2023-05-09T19:42:07;96103.97;;;18.19;57.82
48778;BME280;34578;0.000;0.000;2023-05-09T19:47:07;96108.22;;;18.17;57.90
48778;BME280;34578;0.000;0.000;2023-05-09T19:52:08;96112.47;;;18.15;57.96
48778;BME280;34578;0.000;0.000;2023-05-09T19:57:08;96112.47;;;18.15;58.12
48778;BME280;34578;0.000;0.000;2023-05-09T20:02:09;96110.78;;;18.14;57.79
48778;BME280;34578;0.000;0.000;2023-05-09T20:07:09;96107.41;;;18.13;57.84
48778;BME280;34578;0.000;0.000;2023-05-09T20:12:10;96107.34;;;18.21;60.06
48778;BME280;34578;0.000;0.000;2023-05-09T20:17:14;96115.66;;;18.39;60.16
48778;BME280;34578;0.000;0.000;2023-05-09T20:22:14;96108.81;;;18.46;60.04
48778;BME280;34578;0.000;0.000;2023-05-09T20:27:15;96106.38;;;18.35;61.18
48778;BME280;34578;0.000;0.000;2023-05-09T20:32:15;96103.91;;;18.28;59.42
48778;BME280;34578;0.000;0.000;2023-05-09T20:37:15;96114.94;;;18.22;58.44
48778;BME280;34578;0.000;0.000;2023-05-09T20:42:16;96119.19;;;18.19;58.12
48778;BME280;34578;0.000;0.000;2023-05-09T20:47:16;96122.56;;;18.18;58.26
48778;BME280;34578;0.000;0.000;2023-05-09T20:52:18;96113.31;;;18.15;58.18
48778;BME280;34578;0.000;0.000;2023-05-09T20:57:20;96122.63;;;18.15;58.13
48778;BME280;34578;0.000;0.000;2023-05-09T21:02:20;96115.84;;;18.14;57.91
48778;BME280;34578;0.000;0.000;2023-05-09T21:07:21;96114.16;;;18.13;57.80
48778;BME280;34578;0.000;0.000;2023-05-09T21:12:24;96110.78;;;18.14;57.78
48778;BME280;34578;0.000;0.000;2023-05-09T21:17:24;96116.56;;;18.34;60.55
48778;BME280;34578;0.000;0.000;2023-05-09T21:22:24;96118.97;;;18.49;60.39
48778;BME280;34578;0.000;0.000;2023-05-09T21:27:25;96119.81;;;18.43;59.22
48778;BME280;34578;0.000;0.000;2023-05-09T21:32:26;96121.63;;;18.32;59.52
48778;BME280;34578;0.000;0.000;2023-05-09T21:37:27;96113.22;;;18.24;58.88
48778;BME280;34578;0.000;0.000;2023-05-09T21:42:28;96118.31;;;18.21;58.26
48778;BME280;34578;0.000;0.000;2023-05-09T21:47:28;96114.13;;;18.19;58.04
48778;BME280;34578;0.000;0.000;2023-05-09T21:52:28;96114.13;;;18.17;57.96
48778;BME280;34578;0.000;0.000;2023-05-09T21:57:29;96115.00;;;18.15;58.00
48778;BME280;34578;0.000;0.000;2023-05-09T22:02:29;96124.28;;;18.14;57.81
48778;BME280;34578;0.000;0.000;2023-05-09T22:07:30;96128.50;;;18.14;57.84
48778;BME280;34578;0.000;0.000;2023-05-09T22:12:30;96132.75;;;18.15;57.68
48778;BME280;34578;0.000;0.000;2023-05-09T22:17:30;96142.81;;;18.21;62.33
48778;BME280;34578;0.000;0.000;2023-05-09T22:22:31;96137.63;;;18.39;62.61
48778;BME280;34578;0.000;0.000;2023-05-09T22:27:32;96154.44;;;18.49;59.53
48778;BME280;34578;0.000;0.000;2023-05-09T22:32:32;96160.47;;;18.37;59.90
48778;BME280;34578;0.000;0.000;2023-05-09T22:37:33;96164.72;;;18.28;59.58
48778;BME280;34578;0.000;0.000;2023-05-09T22:42:33;96168.13;;;18.24;58.96
48778;BME280;34578;0.000;0.000;2023-05-09T22:47:34;96169.81;;;18.22;58.27
48778;BME280;34578;0.000;0.000;2023-05-09T22:52:34;96166.50;;;18.17;58.14
48778;BME280;34578;0.000;0.000;2023-05-09T22:57:34;96171.56;;;18.17;57.93
48778;BME280;34578;0.000;0.000;2023-05-09T23:02:35;96181.69;;;18.17;57.82
48778;BME280;34578;0.000;0.000;2023-05-09T23:07:35;96175.81;;;18.15;57.75
48778;BME280;34578;0.000;0.000;2023-05-09T23:12:36;96181.69;;;18.14;57.70
48778;BME280;34578;0.000;0.000;2023-05-09T23:17:37;96185.09;;;18.13;57.64
48778;BME280;34578;0.000;0.000;2023-05-09T23:22:38;96187.53;;;18.28;60.87
48778;BME280;34578;0.000;0.000;2023-05-09T23:27:38;96185.72;;;18.43;59.45
48778;BME280;34578;0.000;0.000;2023-05-09T23:32:39;96183.19;;;18.45;58.22
48778;BME280;34578;0.000;0.000;2023-05-09T23:37:40;96188.38;;;18.33;59.81
48778;BME280;34578;0.000;0.000;2023-05-09T23:42:40;96185.03;;;18.25;59.37
48778;BME280;34578;0.000;0.000;2023-05-09T23:47:41;96177.47;;;18.20;58.90
48778;BME280;34578;0.000;0.000;2023-05-09T23:52:41;96184.19;;;18.18;58.56
48778;BME280;34578;0.000;0.000;2023-05-09T23:57:42;96186.78;;;18.17;58.16
